createdAt,value
2017-05-28T00:00:21.093Z,0
2017-05-28T00:01:30.055Z,0
2017-05-28T00:02:39.028Z,0
2017-05-28T00:03:48.298Z,0
2017-05-28T00:04:57.278Z,0
2017-05-28T00:06:06.242Z,0
2017-05-28T00:07:15.202Z,0
2017-05-28T00:08:24.177Z,0
2017-05-28T00:09:33.446Z,0
2017-05-28T00:10:42.409Z,0
2017-05-28T00:11:51.368Z,0
2017-05-28T00:13:00.334Z,0
2017-05-28T00:14:09.304Z,0
2017-05-28T00:15:18.562Z,0
2017-05-28T00:16:27.857Z,0
2017-05-28T00:17:36.818Z,0
2017-05-28T00:18:45.786Z,0
2017-05-28T00:19:54.748Z,0
2017-05-28T00:21:04.011Z,0
2017-05-28T00:22:13.305Z,0
2017-05-28T00:23:22.271Z,0
2017-05-28T00:24:31.236Z,0
2017-05-28T00:25:40.195Z,0
2017-05-28T00:26:49.461Z,0
2017-05-28T00:27:58.433Z,0
2017-05-28T00:29:07.391Z,0
2017-05-28T00:30:16.357Z,0
2017-05-28T00:31:25.664Z,0
2017-05-28T00:32:34.964Z,0
2017-05-28T00:33:43.933Z,0
2017-05-28T00:34:52.899Z,0
2017-05-28T00:36:01.862Z,0
2017-05-28T00:37:10.919Z,0
2017-05-28T00:38:20.130Z,0
2017-05-28T00:39:29.094Z,0
2017-05-28T00:40:38.056Z,0
2017-05-28T00:41:47.018Z,0
2017-05-28T00:42:56.314Z,0
2017-05-28T00:44:05.587Z,0
2017-05-28T00:45:14.550Z,0
2017-05-28T00:46:23.581Z,0
2017-05-28T00:47:32.545Z,0
2017-05-28T00:48:41.514Z,0
2017-05-28T00:49:50.779Z,0
2017-05-28T00:50:59.747Z,0
2017-05-28T00:52:08.711Z,0
2017-05-28T00:53:17.680Z,0
2017-05-28T00:54:26.653Z,0
2017-05-28T00:55:35.958Z,0
2017-05-28T00:56:44.919Z,0
2017-05-28T00:57:53.885Z,0
2017-05-28T00:59:02.848Z,0
2017-05-28T01:00:11.811Z,0
2017-05-28T01:01:21.023Z,0
2017-05-28T01:02:29.990Z,0
2017-05-28T01:03:38.947Z,0
2017-05-28T01:04:47.912Z,0
2017-05-28T01:05:56.883Z,0
2017-05-28T01:07:06.099Z,0
2017-05-28T01:08:15.067Z,0
2017-05-28T01:09:24.037Z,0
2017-05-28T01:10:33.009Z,0
2017-05-28T01:11:41.969Z,0
2017-05-28T01:12:51.180Z,0
2017-05-28T01:14:00.145Z,0
2017-05-28T01:15:09.198Z,0
2017-05-28T01:16:18.164Z,0
2017-05-28T01:17:27.130Z,0
2017-05-28T01:18:36.346Z,0
2017-05-28T01:19:45.307Z,0
2017-05-28T01:20:54.270Z,0
2017-05-28T01:22:03.237Z,0
2017-05-28T01:23:12.257Z,0
2017-05-28T01:24:21.472Z,0
2017-05-28T01:25:30.441Z,0
2017-05-28T01:26:39.412Z,0
2017-05-28T01:27:48.375Z,0
2017-05-28T01:28:57.339Z,0
2017-05-28T01:30:06.687Z,0
2017-05-28T01:31:15.656Z,0
2017-05-28T01:32:24.616Z,0
2017-05-28T01:33:33.581Z,0
2017-05-28T01:34:42.871Z,0
2017-05-28T01:35:52.134Z,0
2017-05-28T01:37:01.096Z,0
2017-05-28T01:38:10.062Z,0
2017-05-28T01:39:19.024Z,0
2017-05-28T01:40:27.980Z,0
2017-05-28T01:41:37.189Z,0
2017-05-28T01:42:46.166Z,0
2017-05-28T01:43:55.140Z,0
2017-05-28T01:45:04.103Z,0
2017-05-28T01:46:13.061Z,0
2017-05-28T01:47:22.278Z,0
2017-05-28T01:48:31.237Z,0
2017-05-28T01:49:40.193Z,0
2017-05-28T01:50:49.155Z,0
2017-05-28T01:51:58.121Z,0
2017-05-28T01:53:07.337Z,0
2017-05-28T01:54:16.305Z,0
2017-05-28T01:55:25.281Z,0
2017-05-28T01:56:34.565Z,0
2017-05-28T01:57:43.524Z,0
2017-05-28T01:58:52.790Z,0
2017-05-28T02:00:01.761Z,0
2017-05-28T02:01:10.721Z,0
2017-05-28T02:02:19.687Z,0
2017-05-28T02:03:28.654Z,0
2017-05-28T02:04:37.871Z,0
2017-05-28T02:05:46.831Z,0
2017-05-28T02:06:55.792Z,0
2017-05-28T02:08:04.755Z,0
2017-05-28T02:09:13.721Z,0
2017-05-28T02:10:22.931Z,0
2017-05-28T02:11:31.889Z,0
2017-05-28T02:12:40.853Z,0
2017-05-28T02:13:49.817Z,0
2017-05-28T02:14:58.779Z,0
2017-05-28T02:16:07.992Z,0
2017-05-28T02:17:17.046Z,0
2017-05-28T02:18:26.010Z,0
2017-05-28T02:19:34.981Z,0
2017-05-28T02:20:43.941Z,0
2017-05-28T02:21:53.247Z,0
2017-05-28T02:23:02.208Z,0
2017-05-28T02:24:11.167Z,0
2017-05-28T02:25:20.126Z,0
2017-05-28T02:26:29.087Z,0
2017-05-28T02:27:38.299Z,0
2017-05-28T02:28:47.257Z,0
2017-05-28T02:29:56.216Z,0
2017-05-28T02:31:05.177Z,0
2017-05-28T02:32:14.141Z,0
2017-05-28T02:33:23.404Z,0
2017-05-28T02:34:32.456Z,0
2017-05-28T02:35:41.419Z,0
2017-05-28T02:36:50.376Z,0
2017-05-28T02:37:59.340Z,0
2017-05-28T02:39:08.549Z,0
2017-05-28T02:40:17.510Z,0
2017-05-28T02:41:26.482Z,0
2017-05-28T02:42:35.441Z,0
2017-05-28T02:43:44.405Z,0
2017-05-28T02:44:53.627Z,0
2017-05-28T02:46:02.590Z,0
2017-05-28T02:47:11.552Z,0
2017-05-28T02:48:20.576Z,0
2017-05-28T02:49:29.881Z,0
2017-05-28T02:50:39.093Z,0
2017-05-28T02:51:48.063Z,0
2017-05-28T02:52:57.023Z,0
2017-05-28T02:54:05.986Z,0
2017-05-28T02:55:14.953Z,0
2017-05-28T02:56:24.165Z,0
2017-05-28T02:57:33.130Z,0
2017-05-28T02:58:42.095Z,0
2017-05-28T02:59:51.056Z,0
2017-05-28T03:01:00.018Z,0
2017-05-28T03:02:09.313Z,0
2017-05-28T03:03:18.281Z,0
2017-05-28T03:04:27.246Z,0
2017-05-28T03:05:36.207Z,0
2017-05-28T03:06:45.169Z,0
2017-05-28T03:07:54.480Z,0
2017-05-28T03:09:03.442Z,0
2017-05-28T03:10:12.727Z,0
2017-05-28T03:11:21.690Z,0
2017-05-28T03:12:30.648Z,0
2017-05-28T03:13:39.860Z,0
2017-05-28T03:14:48.909Z,0
2017-05-28T03:15:57.881Z,0
2017-05-28T03:17:06.851Z,0
2017-05-28T03:18:15.809Z,0
2017-05-28T03:19:25.023Z,0
2017-05-28T03:20:33.987Z,0
2017-05-28T03:21:42.949Z,0
2017-05-28T03:22:51.916Z,0
2017-05-28T03:24:00.874Z,0
2017-05-28T03:25:10.140Z,0
2017-05-28T03:26:19.100Z,0
2017-05-28T03:27:28.067Z,0
2017-05-28T03:28:37.355Z,0
2017-05-28T03:29:46.317Z,0
2017-05-28T03:30:55.526Z,0
2017-05-28T03:32:04.492Z,5
2017-05-28T03:33:13.459Z,5
2017-05-28T03:34:22.419Z,5
2017-05-28T03:35:31.377Z,5
2017-05-28T03:36:40.590Z,5
2017-05-28T03:37:49.556Z,5
2017-05-28T03:38:58.521Z,5
2017-05-28T03:40:07.480Z,5
2017-05-28T03:41:16.778Z,5
2017-05-28T03:42:26.076Z,5
2017-05-28T03:43:35.034Z,5
2017-05-28T03:44:44.090Z,5
2017-05-28T03:45:53.050Z,5
2017-05-28T03:47:02.010Z,5
2017-05-28T03:48:11.219Z,5
2017-05-28T03:49:20.284Z,5
2017-05-28T03:50:29.249Z,5
2017-05-28T03:51:38.204Z,5
2017-05-28T03:52:47.163Z,5
2017-05-28T03:53:56.376Z,5
2017-05-28T03:55:05.343Z,5
2017-05-28T03:56:14.301Z,5
2017-05-28T03:57:23.260Z,5
2017-05-28T03:58:32.231Z,5
2017-05-28T03:59:41.537Z,5
2017-05-28T04:00:50.500Z,5
2017-05-28T04:01:59.547Z,5
2017-05-28T04:03:08.513Z,5
2017-05-28T04:04:17.563Z,5
2017-05-28T04:05:26.776Z,5
2017-05-28T04:06:35.736Z,10
2017-05-28T04:07:44.703Z,10
2017-05-28T04:08:53.671Z,10
2017-05-28T04:10:02.630Z,10
2017-05-28T04:11:11.927Z,10
2017-05-28T04:12:20.890Z,10
2017-05-28T04:13:29.853Z,10
2017-05-28T04:14:38.819Z,10
2017-05-28T04:15:47.869Z,10
2017-05-28T04:16:57.078Z,10
2017-05-28T04:18:06.186Z,10
2017-05-28T04:19:15.145Z,10
2017-05-28T04:20:24.106Z,10
2017-05-28T04:21:33.068Z,10
2017-05-28T04:22:42.279Z,10
2017-05-28T04:23:51.241Z,10
2017-05-28T04:25:00.203Z,10
2017-05-28T04:26:09.170Z,10
2017-05-28T04:27:18.217Z,10
2017-05-28T04:28:27.431Z,10
2017-05-28T04:29:36.399Z,10
2017-05-28T04:30:45.451Z,10
2017-05-28T04:31:54.410Z,10
2017-05-28T04:33:03.701Z,10
2017-05-28T04:34:12.911Z,15
2017-05-28T04:35:21.870Z,15
2017-05-28T04:36:30.839Z,15
2017-05-28T04:37:39.801Z,15
2017-05-28T04:38:48.781Z,15
2017-05-28T04:39:57.994Z,15
2017-05-28T04:41:07.044Z,15
2017-05-28T04:42:16.051Z,15
2017-05-28T04:43:25.016Z,15
2017-05-28T04:44:33.988Z,15
2017-05-28T04:45:43.199Z,15
2017-05-28T04:46:52.162Z,15
2017-05-28T04:48:01.118Z,15
2017-05-28T04:49:10.077Z,15
2017-05-28T04:50:19.042Z,15
2017-05-28T04:51:28.253Z,15
2017-05-28T04:52:37.213Z,15
2017-05-28T04:53:46.175Z,15
2017-05-28T04:54:55.139Z,15
2017-05-28T04:56:04.106Z,15
2017-05-28T04:57:13.406Z,15
2017-05-28T04:58:22.374Z,20
2017-05-28T04:59:31.335Z,20
2017-05-28T05:00:40.297Z,20
2017-05-28T05:01:49.255Z,20
2017-05-28T05:02:58.565Z,20
2017-05-28T05:04:07.531Z,20
2017-05-28T05:05:16.510Z,20
2017-05-28T05:06:25.475Z,20
2017-05-28T05:07:34.524Z,20
2017-05-28T05:08:43.734Z,20
2017-05-28T05:09:52.700Z,20
2017-05-28T05:11:01.659Z,20
2017-05-28T05:12:10.622Z,20
2017-05-28T05:13:19.590Z,20
2017-05-28T05:14:28.803Z,20
2017-05-28T05:15:37.772Z,20
2017-05-28T05:16:47.058Z,20
2017-05-28T05:17:56.018Z,20
2017-05-28T05:19:04.985Z,20
2017-05-28T05:20:14.194Z,20
2017-05-28T05:21:23.164Z,25
2017-05-28T05:22:32.454Z,25
2017-05-28T05:23:41.478Z,25
2017-05-28T05:24:50.453Z,25
2017-05-28T05:25:59.664Z,25
2017-05-28T05:27:08.621Z,25
2017-05-28T05:28:17.584Z,25
2017-05-28T05:29:26.552Z,25
2017-05-28T05:30:35.513Z,25
2017-05-28T05:31:44.730Z,25
2017-05-28T05:32:53.687Z,25
2017-05-28T05:34:02.648Z,25
2017-05-28T05:35:11.614Z,25
2017-05-28T05:36:20.660Z,25
2017-05-28T05:37:29.877Z,25
2017-05-28T05:38:38.845Z,25
2017-05-28T05:39:47.899Z,25
2017-05-28T05:40:56.863Z,30
2017-05-28T05:42:05.828Z,30
2017-05-28T05:43:15.040Z,30
2017-05-28T05:44:24.001Z,30
2017-05-28T05:45:32.962Z,30
2017-05-28T05:46:41.923Z,30
2017-05-28T05:47:50.880Z,30
2017-05-28T05:49:00.138Z,30
2017-05-28T05:50:09.101Z,30
2017-05-28T05:51:18.067Z,30
2017-05-28T05:52:27.023Z,30
2017-05-28T05:53:35.989Z,30
2017-05-28T05:54:45.201Z,30
2017-05-28T05:55:54.160Z,35
2017-05-28T05:57:03.124Z,45
2017-05-28T05:58:12.087Z,45
2017-05-28T05:59:21.143Z,70
2017-05-28T06:00:30.355Z,95
2017-05-28T06:01:39.316Z,70
2017-05-28T06:02:48.280Z,95
2017-05-28T06:03:57.245Z,45
2017-05-28T06:05:06.208Z,35
2017-05-28T06:06:15.418Z,50
2017-05-28T06:07:24.382Z,175
2017-05-28T06:08:33.352Z,345
2017-05-28T06:09:42.320Z,325
2017-05-28T06:10:51.286Z,130
2017-05-28T06:12:00.492Z,50
2017-05-28T06:13:09.456Z,35
2017-05-28T06:14:18.420Z,35
2017-05-28T06:15:27.402Z,35
2017-05-28T06:16:36.361Z,40
2017-05-28T06:17:45.586Z,35
2017-05-28T06:18:54.576Z,35
2017-05-28T06:20:03.635Z,35
2017-05-28T06:21:12.600Z,35
2017-05-28T06:22:21.562Z,35
2017-05-28T06:23:30.773Z,35
2017-05-28T06:24:39.737Z,40
2017-05-28T06:25:48.791Z,40
2017-05-28T06:26:57.754Z,40
2017-05-28T06:28:07.134Z,40
2017-05-28T06:29:16.354Z,40
2017-05-28T06:30:25.323Z,45
2017-05-28T06:31:34.287Z,50
2017-05-28T06:32:43.589Z,55
2017-05-28T06:33:52.555Z,45
2017-05-28T06:35:01.771Z,40
2017-05-28T06:36:10.733Z,40
2017-05-28T06:37:19.693Z,40
2017-05-28T06:38:28.670Z,45
2017-05-28T06:39:37.627Z,45
2017-05-28T06:40:46.838Z,45
2017-05-28T06:41:55.799Z,45
2017-05-28T06:43:04.763Z,45
2017-05-28T06:44:13.729Z,45
2017-05-28T06:45:22.779Z,45
2017-05-28T06:46:31.992Z,45
2017-05-28T06:47:40.963Z,45
2017-05-28T06:48:49.924Z,45
2017-05-28T06:49:58.892Z,45
2017-05-28T06:51:07.856Z,45
2017-05-28T06:52:17.395Z,45
2017-05-28T06:53:26.363Z,45
2017-05-28T06:54:35.329Z,45
2017-05-28T06:55:44.301Z,45
2017-05-28T06:56:53.263Z,45
2017-05-28T06:58:02.479Z,50
2017-05-28T06:59:11.445Z,50
2017-05-28T07:00:20.410Z,50
2017-05-28T07:01:29.376Z,50
2017-05-28T07:02:38.990Z,50
2017-05-28T07:03:48.211Z,50
2017-05-28T07:04:57.182Z,50
2017-05-28T07:06:06.233Z,50
2017-05-28T07:07:15.199Z,50
2017-05-28T07:08:24.164Z,50
2017-05-28T07:09:33.377Z,50
2017-05-28T07:10:42.344Z,50
2017-05-28T07:11:51.306Z,50
2017-05-28T07:13:00.278Z,50
2017-05-28T07:14:09.240Z,50
2017-05-28T07:15:18.452Z,50
2017-05-28T07:16:27.417Z,50
2017-05-28T07:17:36.474Z,50
2017-05-28T07:18:45.436Z,55
2017-05-28T07:19:54.463Z,55
2017-05-28T07:21:03.673Z,55
2017-05-28T07:22:12.650Z,55
2017-05-28T07:23:21.614Z,55
2017-05-28T07:24:30.581Z,55
2017-05-28T07:25:39.634Z,55
2017-05-28T07:26:49.256Z,55
2017-05-28T07:27:58.223Z,55
2017-05-28T07:29:07.517Z,55
2017-05-28T07:30:16.570Z,55
2017-05-28T07:31:25.537Z,55
2017-05-28T07:32:34.750Z,55
2017-05-28T07:33:43.711Z,55
2017-05-28T07:34:52.677Z,55
2017-05-28T07:36:01.728Z,55
2017-05-28T07:37:10.690Z,55
2017-05-28T07:38:19.910Z,55
2017-05-28T07:39:28.876Z,55
2017-05-28T07:40:37.848Z,55
2017-05-28T07:41:46.815Z,55
2017-05-28T07:42:55.870Z,55
2017-05-28T07:44:05.132Z,55
2017-05-28T07:45:14.095Z,55
2017-05-28T07:46:23.066Z,55
2017-05-28T07:47:32.353Z,55
2017-05-28T07:48:41.404Z,55
2017-05-28T07:49:50.710Z,55
2017-05-28T07:50:59.672Z,55
2017-05-28T07:52:08.636Z,55
2017-05-28T07:53:17.604Z,60
2017-05-28T07:54:26.577Z,55
2017-05-28T07:55:35.792Z,60
2017-05-28T07:56:44.756Z,60
2017-05-28T07:57:53.719Z,55
2017-05-28T07:59:02.680Z,60
2017-05-28T08:00:11.971Z,60
2017-05-28T08:01:21.188Z,60
2017-05-28T08:02:30.148Z,60
2017-05-28T08:03:39.120Z,60
2017-05-28T08:04:48.086Z,60
2017-05-28T08:05:57.055Z,60
2017-05-28T08:07:06.269Z,60
2017-05-28T08:08:15.233Z,60
2017-05-28T08:09:24.191Z,60
2017-05-28T08:10:33.174Z,60
2017-05-28T08:11:42.145Z,60
2017-05-28T08:12:51.452Z,60
2017-05-28T08:14:00.420Z,60
2017-05-28T08:15:09.387Z,60
2017-05-28T08:16:18.351Z,60
2017-05-28T08:17:27.312Z,60
2017-05-28T08:18:36.526Z,60
2017-05-28T08:19:45.490Z,60
2017-05-28T08:20:54.454Z,60
2017-05-28T08:22:03.418Z,60
2017-05-28T08:23:12.380Z,60
2017-05-28T08:24:21.595Z,60
2017-05-28T08:25:30.562Z,60
2017-05-28T08:26:39.524Z,65
2017-05-28T08:27:48.492Z,65
2017-05-28T08:28:57.461Z,65
2017-05-28T08:30:06.767Z,60
2017-05-28T08:31:15.899Z,60
2017-05-28T08:32:24.874Z,60
2017-05-28T08:33:33.839Z,60
2017-05-28T08:34:42.896Z,60
2017-05-28T08:35:52.159Z,65
2017-05-28T08:37:01.125Z,60
2017-05-28T08:38:10.089Z,60
2017-05-28T08:39:19.053Z,65
2017-05-28T08:40:28.014Z,65
2017-05-28T08:41:37.321Z,65
2017-05-28T08:42:46.288Z,65
2017-05-28T08:43:55.257Z,70
2017-05-28T08:45:04.226Z,65
2017-05-28T08:46:13.194Z,70
2017-05-28T08:47:22.407Z,70
2017-05-28T08:48:31.376Z,70
2017-05-28T08:49:40.344Z,70
2017-05-28T08:50:49.315Z,70
2017-05-28T08:51:58.279Z,80
2017-05-28T08:53:07.876Z,85
2017-05-28T08:54:16.938Z,90
2017-05-28T08:55:25.902Z,95
2017-05-28T08:56:34.865Z,90
2017-05-28T08:57:43.850Z,70
2017-05-28T08:58:53.065Z,70
2017-05-28T09:00:02.033Z,70
2017-05-28T09:01:11.001Z,70
2017-05-28T09:02:19.972Z,80
2017-05-28T09:03:28.939Z,70
2017-05-28T09:04:38.157Z,50
2017-05-28T09:05:47.122Z,50
2017-05-28T09:06:56.091Z,70
2017-05-28T09:08:05.056Z,65
2017-05-28T09:09:14.347Z,60
2017-05-28T09:10:23.654Z,65
2017-05-28T09:11:32.617Z,60
2017-05-28T09:12:41.583Z,65
2017-05-28T09:13:50.552Z,65
2017-05-28T09:14:59.861Z,65
2017-05-28T09:16:09.130Z,65
2017-05-28T09:17:18.145Z,70
2017-05-28T09:18:27.105Z,70
2017-05-28T09:19:36.069Z,75
2017-05-28T09:20:45.037Z,75
2017-05-28T09:21:54.257Z,80
2017-05-28T09:23:03.224Z,80
2017-05-28T09:24:12.280Z,85
2017-05-28T09:25:21.247Z,85
2017-05-28T09:26:30.212Z,75
2017-05-28T09:27:39.823Z,75
2017-05-28T09:28:48.787Z,75
2017-05-28T09:29:57.752Z,75
2017-05-28T09:31:06.724Z,75
2017-05-28T09:32:16.011Z,75
2017-05-28T09:33:25.227Z,75
2017-05-28T09:34:34.194Z,80
2017-05-28T09:35:43.162Z,80
2017-05-28T09:36:52.132Z,80
2017-05-28T09:38:01.093Z,80
2017-05-28T09:39:10.317Z,75
2017-05-28T09:40:19.283Z,75
2017-05-28T09:41:28.251Z,80
2017-05-28T09:42:37.220Z,80
2017-05-28T09:43:46.192Z,80
2017-05-28T09:44:55.467Z,75
2017-05-28T09:46:04.432Z,75
2017-05-28T09:47:13.398Z,75
2017-05-28T09:48:22.370Z,70
2017-05-28T09:49:31.658Z,70
2017-05-28T09:50:40.875Z,70
2017-05-28T09:51:49.843Z,75
2017-05-28T09:52:58.815Z,70
2017-05-28T09:54:07.784Z,70
2017-05-28T09:55:16.752Z,75
2017-05-28T09:56:25.976Z,70
2017-05-28T09:57:35.268Z,75
2017-05-28T09:58:44.238Z,70
2017-05-28T09:59:53.374Z,70
2017-05-28T10:01:02.344Z,75
2017-05-28T10:02:11.571Z,75
2017-05-28T10:03:20.600Z,75
2017-05-28T10:04:29.574Z,75
2017-05-28T10:05:38.543Z,75
2017-05-28T10:06:47.512Z,75
2017-05-28T10:07:56.731Z,75
2017-05-28T10:09:05.697Z,75
2017-05-28T10:10:14.673Z,80
2017-05-28T10:11:23.640Z,70
2017-05-28T10:12:32.608Z,75
2017-05-28T10:13:41.830Z,80
2017-05-28T10:14:50.815Z,80
2017-05-28T10:15:59.779Z,75
2017-05-28T10:17:08.748Z,75
2017-05-28T10:18:17.728Z,70
2017-05-28T10:19:26.948Z,70
2017-05-28T10:20:35.919Z,65
2017-05-28T10:21:44.891Z,70
2017-05-28T10:22:53.859Z,70
2017-05-28T10:24:02.834Z,70
2017-05-28T10:25:12.054Z,70
2017-05-28T10:26:21.020Z,70
2017-05-28T10:27:29.990Z,70
2017-05-28T10:28:38.951Z,70
2017-05-28T10:29:47.916Z,70
2017-05-28T10:30:57.129Z,70
2017-05-28T10:32:06.099Z,70
2017-05-28T10:33:15.068Z,65
2017-05-28T10:34:24.033Z,70
2017-05-28T10:35:33.004Z,70
2017-05-28T10:36:42.311Z,75
2017-05-28T10:37:51.277Z,75
2017-05-28T10:39:00.253Z,60
2017-05-28T10:40:09.240Z,55
2017-05-28T10:41:18.534Z,65
2017-05-28T10:42:27.751Z,70
2017-05-28T10:43:36.722Z,75
2017-05-28T10:44:45.696Z,75
2017-05-28T10:45:54.660Z,75
2017-05-28T10:47:03.625Z,80
2017-05-28T10:48:12.847Z,90
2017-05-28T10:49:21.820Z,85
2017-05-28T10:50:30.785Z,85
2017-05-28T10:51:39.803Z,85
2017-05-28T10:52:48.767Z,85
2017-05-28T10:53:57.985Z,90
2017-05-28T10:55:06.957Z,90
2017-05-28T10:56:16.019Z,90
2017-05-28T10:57:24.988Z,95
2017-05-28T10:58:34.045Z,95
2017-05-28T10:59:43.271Z,90
2017-05-28T11:00:52.235Z,90
2017-05-28T11:02:01.208Z,95
2017-05-28T11:03:10.177Z,100
2017-05-28T11:04:19.147Z,95
2017-05-28T11:05:28.740Z,95
2017-05-28T11:06:37.787Z,90
2017-05-28T11:07:46.755Z,95
2017-05-28T11:08:56.056Z,95
2017-05-28T11:10:05.111Z,95
2017-05-28T11:11:14.331Z,100
2017-05-28T11:12:23.297Z,100
2017-05-28T11:13:32.325Z,95
2017-05-28T11:14:41.293Z,95
2017-05-28T11:15:50.258Z,100
2017-05-28T11:16:59.473Z,90
2017-05-28T11:18:08.436Z,90
2017-05-28T11:19:17.403Z,85
2017-05-28T11:20:26.404Z,85
2017-05-28T11:21:35.368Z,80
2017-05-28T11:22:44.583Z,75
2017-05-28T11:23:53.889Z,75
2017-05-28T11:25:02.856Z,75
2017-05-28T11:26:11.833Z,75
2017-05-28T11:27:20.799Z,75
2017-05-28T11:28:30.012Z,75
2017-05-28T11:29:38.990Z,75
2017-05-28T11:30:48.040Z,75
2017-05-28T11:31:57.006Z,75
2017-05-28T11:33:05.978Z,80
2017-05-28T11:34:15.196Z,75
2017-05-28T11:35:24.170Z,65
2017-05-28T11:36:33.145Z,70
2017-05-28T11:37:42.441Z,65
2017-05-28T11:38:51.741Z,75
2017-05-28T11:40:01.054Z,70
2017-05-28T11:41:10.034Z,60
2017-05-28T11:42:19.094Z,60
2017-05-28T11:43:28.061Z,65
2017-05-28T11:44:37.209Z,65
2017-05-28T11:45:46.426Z,70
2017-05-28T11:46:55.395Z,65
2017-05-28T11:48:04.379Z,75
2017-05-28T11:49:13.351Z,70
2017-05-28T11:50:22.319Z,75
2017-05-28T11:51:31.533Z,75
2017-05-28T11:52:40.506Z,75
2017-05-28T11:53:49.480Z,75
2017-05-28T11:54:58.448Z,75
2017-05-28T11:56:07.504Z,90
2017-05-28T11:57:16.727Z,90
2017-05-28T11:58:25.694Z,90
2017-05-28T11:59:34.668Z,100
2017-05-28T12:00:43.726Z,95
2017-05-28T12:01:52.694Z,95
2017-05-28T12:03:01.913Z,90
2017-05-28T12:04:10.874Z,95
2017-05-28T12:05:19.843Z,100
2017-05-28T12:06:28.810Z,100
2017-05-28T12:07:37.777Z,95
2017-05-28T12:08:47.024Z,100
2017-05-28T12:09:56.318Z,105
2017-05-28T12:11:05.608Z,105
2017-05-28T12:12:14.578Z,105
2017-05-28T12:13:23.549Z,85
2017-05-28T12:14:32.765Z,80
2017-05-28T12:15:41.731Z,70
2017-05-28T12:16:50.751Z,75
2017-05-28T12:17:59.723Z,65
2017-05-28T12:19:08.691Z,60
2017-05-28T12:20:17.915Z,55
2017-05-28T12:21:26.886Z,60
2017-05-28T12:22:35.846Z,70
2017-05-28T12:23:44.823Z,85
2017-05-28T12:24:53.793Z,90
2017-05-28T12:26:03.102Z,90
2017-05-28T12:27:12.070Z,90
2017-05-28T12:28:21.046Z,85
2017-05-28T12:29:30.347Z,80
2017-05-28T12:30:39.636Z,80
2017-05-28T12:31:49.187Z,80
2017-05-28T12:32:58.156Z,80
2017-05-28T12:34:07.128Z,80
2017-05-28T12:35:16.111Z,60
2017-05-28T12:36:25.082Z,55
2017-05-28T12:37:34.349Z,55
2017-05-28T12:38:43.319Z,60
2017-05-28T12:39:52.286Z,65
2017-05-28T12:41:01.259Z,65
2017-05-28T12:42:10.228Z,70
2017-05-28T12:43:19.449Z,65
2017-05-28T12:44:28.420Z,70
2017-05-28T12:45:37.387Z,70
2017-05-28T12:46:46.356Z,65
2017-05-28T12:47:55.332Z,70
2017-05-28T12:49:04.554Z,70
2017-05-28T12:50:13.521Z,75
2017-05-28T12:51:22.487Z,70
2017-05-28T12:52:31.461Z,65
2017-05-28T12:53:40.429Z,75
2017-05-28T12:54:49.395Z,75
2017-05-28T12:55:58.455Z,45
2017-05-28T12:57:07.749Z,75
2017-05-28T12:58:16.716Z,80
2017-05-28T12:59:25.942Z,75
2017-05-28T13:00:34.913Z,80
2017-05-28T13:01:43.885Z,80
2017-05-28T13:02:52.854Z,80
2017-05-28T13:04:01.832Z,70
2017-05-28T13:05:11.058Z,80
2017-05-28T13:06:20.034Z,55
2017-05-28T13:07:28.998Z,45
2017-05-28T13:08:37.971Z,60
2017-05-28T13:09:46.933Z,60
2017-05-28T13:10:56.152Z,85
2017-05-28T13:12:05.126Z,95
2017-05-28T13:13:14.099Z,85
2017-05-28T13:14:23.396Z,90
2017-05-28T13:15:32.368Z,90
2017-05-28T13:16:41.630Z,95
2017-05-28T13:17:50.603Z,95
2017-05-28T13:18:59.584Z,105
2017-05-28T13:20:08.550Z,95
2017-05-28T13:21:17.517Z,105
2017-05-28T13:22:26.736Z,105
2017-05-28T13:23:35.705Z,100
2017-05-28T13:24:44.667Z,105
2017-05-28T13:25:53.641Z,105
2017-05-28T13:27:02.623Z,105
2017-05-28T13:28:11.839Z,100
2017-05-28T13:29:20.810Z,95
2017-05-28T13:30:29.787Z,95
2017-05-28T13:31:38.754Z,80
2017-05-28T13:32:47.726Z,95
2017-05-28T13:33:56.944Z,105
2017-05-28T13:35:05.916Z,85
2017-05-28T13:36:14.886Z,85
2017-05-28T13:37:23.858Z,85
2017-05-28T13:38:32.830Z,80
2017-05-28T13:39:42.101Z,80
2017-05-28T13:40:51.068Z,90
2017-05-28T13:42:00.129Z,95
2017-05-28T13:43:09.098Z,85
2017-05-28T13:44:18.068Z,85
2017-05-28T13:45:27.290Z,80
2017-05-28T13:46:36.263Z,80
2017-05-28T13:47:45.228Z,75
2017-05-28T13:48:54.206Z,65
2017-05-28T13:50:03.186Z,35
2017-05-28T13:51:12.403Z,65
2017-05-28T13:52:21.384Z,75
2017-05-28T13:53:30.358Z,75
2017-05-28T13:54:39.326Z,75
2017-05-28T13:55:48.296Z,80
2017-05-28T13:56:57.854Z,75
2017-05-28T13:58:06.915Z,75
2017-05-28T13:59:16.205Z,75
2017-05-28T14:00:25.260Z,80
2017-05-28T14:01:34.224Z,80
2017-05-28T14:02:43.441Z,85
2017-05-28T14:03:52.409Z,85
2017-05-28T14:05:01.377Z,85
2017-05-28T14:06:10.345Z,80
2017-05-28T14:07:19.318Z,80
2017-05-28T14:08:28.870Z,80
2017-05-28T14:09:37.834Z,75
2017-05-28T14:10:46.808Z,85
2017-05-28T14:11:55.777Z,75
2017-05-28T14:13:04.753Z,75
2017-05-28T14:14:13.980Z,65
2017-05-28T14:15:22.949Z,45
2017-05-28T14:16:31.920Z,40
2017-05-28T14:17:40.892Z,40
2017-05-28T14:18:49.864Z,40
2017-05-28T14:19:59.084Z,40
2017-05-28T14:21:08.053Z,40
2017-05-28T14:22:17.023Z,50
2017-05-28T14:23:26.058Z,45
2017-05-28T14:24:35.027Z,40
2017-05-28T14:25:44.340Z,55
2017-05-28T14:26:53.314Z,50
2017-05-28T14:28:02.309Z,60
2017-05-28T14:29:11.274Z,55
2017-05-28T14:30:20.333Z,55
2017-05-28T14:31:29.598Z,45
2017-05-28T14:32:38.564Z,40
2017-05-28T14:33:47.531Z,35
2017-05-28T14:34:56.502Z,40
2017-05-28T14:36:05.472Z,60
2017-05-28T14:37:14.690Z,60
2017-05-28T14:38:23.659Z,65
2017-05-28T14:39:32.627Z,55
2017-05-28T14:40:41.920Z,60
2017-05-28T14:41:50.887Z,30
2017-05-28T14:43:00.108Z,30
2017-05-28T14:44:09.079Z,30
2017-05-28T14:45:18.041Z,25
2017-05-28T14:46:27.071Z,30
2017-05-28T14:47:36.042Z,30
2017-05-28T14:48:45.374Z,40
2017-05-28T14:49:54.346Z,30
2017-05-28T14:51:03.312Z,30
2017-05-28T14:52:12.280Z,35
2017-05-28T14:53:21.312Z,35
2017-05-28T14:54:30.534Z,35
2017-05-28T14:55:39.515Z,25
2017-05-28T14:56:48.483Z,30
2017-05-28T14:57:57.451Z,40
2017-05-28T14:59:06.423Z,45
2017-05-28T15:00:15.642Z,45
2017-05-28T15:01:25.004Z,35
2017-05-28T15:02:34.436Z,35
2017-05-28T15:03:43.871Z,40
2017-05-28T15:04:53.432Z,40
2017-05-28T15:06:03.258Z,35
2017-05-28T15:07:12.714Z,35
2017-05-28T15:08:22.012Z,35
2017-05-28T15:09:33.086Z,30
2017-05-28T15:10:43.781Z,35
2017-05-28T15:11:53.614Z,35
2017-05-28T15:13:04.457Z,35
2017-05-28T15:14:14.099Z,30
2017-05-28T15:15:23.864Z,30
2017-05-28T15:16:33.571Z,25
2017-05-28T15:17:43.221Z,20
2017-05-28T15:18:52.781Z,15
2017-05-28T15:20:02.078Z,15
2017-05-28T15:21:15.684Z,15
2017-05-28T15:22:28.793Z,15
2017-05-28T15:23:41.736Z,15
2017-05-28T15:24:54.746Z,15
2017-05-28T15:26:06.766Z,15
2017-05-28T15:27:19.400Z,15
2017-05-28T15:28:31.623Z,15
2017-05-28T15:29:44.244Z,20
2017-05-28T15:30:55.763Z,25
2017-05-28T15:32:08.324Z,25
2017-05-28T15:33:21.626Z,20
2017-05-28T15:34:34.456Z,15
2017-05-28T15:35:46.176Z,15
2017-05-28T15:36:58.403Z,15
2017-05-28T15:38:10.487Z,20
2017-05-28T15:39:22.948Z,20
2017-05-28T15:40:33.274Z,20
2017-05-28T15:41:42.853Z,25
2017-05-28T15:42:52.411Z,20
2017-05-28T15:44:01.922Z,20
2017-05-28T15:45:11.847Z,20
2017-05-28T15:46:21.522Z,20
2017-05-28T15:47:30.832Z,25
2017-05-28T15:48:40.309Z,25
2017-05-28T15:49:49.929Z,25
2017-05-28T15:50:59.774Z,25
2017-05-28T15:52:09.324Z,25
2017-05-28T15:53:18.993Z,30
2017-05-28T15:54:28.579Z,30
2017-05-28T15:55:38.267Z,35
2017-05-28T15:56:47.857Z,40
2017-05-28T15:57:57.236Z,40
2017-05-28T15:59:06.880Z,45
2017-05-28T16:00:16.589Z,45
2017-05-28T16:01:26.093Z,45
2017-05-28T16:02:35.969Z,45
2017-05-28T16:03:45.823Z,45
2017-05-28T16:04:55.757Z,60
2017-05-28T16:06:04.752Z,60
2017-05-28T16:07:13.832Z,60
2017-05-28T16:08:23.123Z,65
2017-05-28T16:09:32.114Z,65
2017-05-28T16:10:41.116Z,65
2017-05-28T16:11:50.305Z,70
2017-05-28T16:12:59.297Z,65
2017-05-28T16:14:08.546Z,65
2017-05-28T16:15:17.540Z,60
2017-05-28T16:16:26.531Z,50
2017-05-28T16:17:35.529Z,45
2017-05-28T16:18:44.529Z,45
2017-05-28T16:19:53.773Z,35
2017-05-28T16:21:02.770Z,35
2017-05-28T16:22:11.772Z,35
2017-05-28T16:23:20.812Z,35
2017-05-28T16:24:29.810Z,30
2017-05-28T16:25:39.106Z,30
2017-05-28T16:26:48.517Z,35
2017-05-28T16:27:57.506Z,35
2017-05-28T16:29:06.500Z,30
2017-05-28T16:30:15.588Z,30
2017-05-28T16:31:24.829Z,35
2017-05-28T16:32:33.801Z,30
2017-05-28T16:33:42.769Z,30